Time;durP1;ratioP1;P1;durP2;ratioP2;P2;SDS_P1;SDS_P2;PMS_P1;PMS_P2;Temp;Humidity;BMP_temperature;BMP_pressure;BME280_temperature;BME280_humidity;BME280_pressure;Samples;Min_cycle;Max_cycle;Signal;HPM_P1;HPM_P2
2023/05/16 00:00:08;;;;;;;16.02;3.60;;;8.20;99.90;;;;;;5032754;28;20124;-62
2023/05/16 00:02:35;;;;;;;16.58;2.40;;;8.20;99.90;;;;;;5036501;28;20048;-62
2023/05/16 00:05:01;;;;;;;14.13;3.20;;;8.20;99.90;;;;;;5072721;28;20115;-61
2023/05/16 00:07:26;;;;;;;17.63;3.10;;;8.20;99.90;;;;;;5037490;28;20048;-61
2023/05/16 00:09:52;;;;;;;15.77;2.90;;;8.10;99.90;;;;;;5041389;28;20040;-61
2023/05/16 00:12:18;;;;;;;11.98;2.70;;;8.10;99.90;;;;;;5071502;28;20049;-61
2023/05/16 00:14:44;;;;;;;19.58;3.22;;;8.10;99.90;;;;;;5042224;28;20479;-61
2023/05/16 00:17:10;;;;;;;15.77;3.10;;;8.10;99.90;;;;;;5041197;28;20039;-62
2023/05/16 00:19:40;;;;;;;18.83;2.80;;;8.00;99.90;;;;;;5034976;28;20401;-62
2023/05/16 00:22:06;;;;;;;11.68;2.92;;;8.00;99.90;;;;;;5037985;28;20045;-62
2023/05/16 00:24:33;;;;;;;15.35;3.38;;;8.00;99.90;;;;;;5036946;28;20033;-61
2023/05/16 00:26:58;;;;;;;16.33;3.08;;;8.00;99.90;;;;;;5034984;28;20444;-62
2023/05/16 00:29:25;;;;;;;17.25;3.05;;;7.90;99.90;;;;;;5029599;28;20182;-61
2023/05/16 00:31:50;;;;;;;14.30;2.85;;;7.90;99.90;;;;;;5040809;28;20061;-62
2023/05/16 00:34:16;;;;;;;17.08;2.80;;;7.80;99.90;;;;;;5068183;28;20270;-62
2023/05/16 00:36:42;;;;;;;15.93;2.53;;;7.70;99.90;;;;;;5039611;28;20037;-62
2023/05/16 00:39:09;;;;;;;14.93;2.58;;;7.70;99.90;;;;;;5030692;28;20041;-62
2023/05/16 00:41:35;;;;;;;14.52;2.80;;;7.70;99.90;;;;;;5035906;28;20140;-61
2023/05/16 00:44:01;;;;;;;17.33;2.80;;;7.60;99.90;;;;;;5038562;28;20132;-63
2023/05/16 00:46:26;;;;;;;13.07;2.63;;;7.60;99.90;;;;;;5038849;28;20126;-63
2023/05/16 00:48:52;;;;;;;12.73;2.28;;;7.50;99.90;;;;;;5034649;28;20045;-62
2023/05/16 00:51:18;;;;;;;10.38;2.28;;;7.50;99.90;;;;;;5040964;28;20033;-63
2023/05/16 00:53:44;;;;;;;13.95;2.33;;;7.40;99.90;;;;;;5035046;28;20041;-62
2023/05/16 00:56:10;;;;;;;13.15;2.65;;;7.40;99.90;;;;;;5036495;28;20237;-62
2023/05/16 00:58:36;;;;;;;15.52;2.65;;;7.30;99.90;;;;;;5033718;28;20036;-61
2023/05/16 01:01:05;;;;;;;19.42;2.70;;;7.30;99.90;;;;;;5043441;28;20098;-62
2023/05/16 01:03:30;;;;;;;13.07;2.60;;;7.30;99.90;;;;;;5071214;28;20415;-61
2023/05/16 01:05:57;;;;;;;14.90;2.95;;;7.20;99.90;;;;;;5040877;28;20037;-62
2023/05/16 01:08:23;;;;;;;13.65;2.58;;;7.20;99.90;;;;;;5022403;28;20072;-62
2023/05/16 01:11:10;;;;;;;13.80;2.47;;;7.20;99.90;;;;;;5041489;28;20150;-62
2023/05/16 01:14:02;;;;;;;13.73;2.90;;;7.10;99.90;;;;;;5071595;28;20041;-62
2023/05/16 01:16:41;;;;;;;15.52;2.47;;;7.10;99.90;;;;;;5038016;28;21115;-63
2023/05/16 01:19:37;;;;;;;13.77;2.35;;;7.00;99.90;;;;;;5029857;28;20048;-63
2023/05/16 01:22:14;;;;;;;16.02;2.25;;;7.00;99.90;;;;;;5071633;28;20045;-62
2023/05/16 01:25:17;;;;;;;11.32;2.63;;;7.00;99.90;;;;;;5029479;28;20088;-63
2023/05/16 01:27:44;;;;;;;17.75;3.08;;;7.00;99.90;;;;;;5033556;28;20049;-63
2023/05/16 01:30:15;;;;;;;16.15;2.65;;;7.00;99.90;;;;;;5061293;28;20393;-63
2023/05/16 01:32:41;;;;;;;9.27;2.63;;;6.90;99.90;;;;;;5075288;28;20049;-62
2023/05/16 01:35:10;;;;;;;17.33;2.50;;;6.90;99.90;;;;;;5037076;28;20033;-63
2023/05/16 01:37:44;;;;;;;13.63;2.35;;;6.90;99.90;;;;;;5043579;28;20127;-62
2023/05/16 01:40:20;;;;;;;18.73;2.70;;;6.90;99.90;;;;;;5066664;28;20415;-63
2023/05/16 01:42:49;;;;;;;14.85;2.63;;;6.80;99.90;;;;;;5077307;28;20056;-62
2023/05/16 01:45:22;;;;;;;11.63;2.60;;;6.80;99.90;;;;;;5043504;28;20123;-63
2023/05/16 01:47:58;;;;;;;14.73;2.50;;;6.80;99.90;;;;;;5036585;28;20037;-63
2023/05/16 01:50:27;;;;;;;11.45;2.33;;;6.70;99.90;;;;;;5039729;28;20045;-63
2023/05/16 01:53:02;;;;;;;14.75;2.97;;;6.70;99.90;;;;;;5069417;28;20344;-63
2023/05/16 01:55:37;;;;;;;15.13;2.65;;;6.70;99.90;;;;;;5066227;28;20061;-62
2023/05/16 01:58:04;;;;;;;16.85;2.20;;;6.70;99.90;;;;;;5039207;28;20722;-63
2023/05/16 02:00:30;;;;;;;18.05;2.75;;;6.60;99.90;;;;;;5068950;28;20045;-63
2023/05/16 02:02:56;;;;;;;15.15;2.42;;;6.60;99.90;;;;;;5039021;28;20045;-62
2023/05/16 02:05:22;;;;;;;14.45;2.17;;;6.60;99.90;;;;;;5045116;28;20040;-62
2023/05/16 02:07:48;;;;;;;14.68;2.10;;;6.60;99.90;;;;;;5072655;28;20174;-63
2023/05/16 02:10:13;;;;;;;14.10;2.40;;;6.60;99.90;;;;;;5054504;28;20033;-63
2023/05/16 02:12:39;;;;;;;11.15;2.42;;;6.50;99.90;;;;;;5033567;28;20041;-63
2023/05/16 02:15:05;;;;;;;17.80;2.70;;;6.60;99.90;;;;;;5035172;28;20067;-62
2023/05/16 02:17:31;;;;;;;17.65;2.47;;;6.50;99.90;;;;;;5040646;28;20040;-62
2023/05/16 02:19:56;;;;;;;16.98;2.80;;;6.50;99.90;;;;;;5039341;28;20045;-62
2023/05/16 02:22:22;;;;;;;16.52;2.58;;;6.60;99.90;;;;;;5040162;28;20036;-63
2023/05/16 02:24:47;;;;;;;13.55;2.70;;;6.60;99.90;;;;;;5037384;28;20049;-62
2023/05/16 02:27:13;;;;;;;10.95;2.42;;;6.60;99.90;;;;;;5074785;28;20087;-62
2023/05/16 02:29:38;;;;;;;15.45;2.70;;;6.60;99.90;;;;;;5070332;28;20041;-62
2023/05/16 02:32:04;;;;;;;17.00;2.40;;;6.60;99.90;;;;;;5040843;28;21669;-62
2023/05/16 02:34:30;;;;;;;15.02;2.13;;;6.50;99.90;;;;;;5040104;28;20072;-63
2023/05/16 02:36:56;;;;;;;14.52;2.45;;;6.50;99.90;;;;;;5068666;28;20040;-62
2023/05/16 02:39:21;;;;;;;10.07;2.58;;;6.50;99.90;;;;;;5034319;28;20036;-62
2023/05/16 02:41:47;;;;;;;11.85;2.35;;;6.40;99.90;;;;;;5037862;28;20033;-62
2023/05/16 02:44:12;;;;;;;13.73;2.53;;;6.40;99.90;;;;;;5033382;28;20620;-63
2023/05/16 02:46:38;;;;;;;13.10;2.70;;;6.40;99.90;;;;;;5041278;28;20146;-62
2023/05/16 02:49:03;;;;;;;15.50;2.50;;;6.40;99.90;;;;;;5067471;28;20038;-63
2023/05/16 02:51:29;;;;;;;13.07;2.25;;;6.30;99.90;;;;;;5036024;28;20120;-62
2023/05/16 02:53:59;;;;;;;15.82;2.80;;;6.30;99.90;;;;;;5038033;28;20068;-62
2023/05/16 02:56:26;;;;;;;14.85;2.92;;;6.30;99.90;;;;;;5038162;28;20484;-63
2023/05/16 02:58:53;;;;;;;14.93;2.58;;;6.30;99.90;;;;;;5038279;28;20410;-62
2023/05/16 03:01:19;;;;;;;15.10;2.83;;;6.20;99.90;;;;;;5072968;28;20037;-62
2023/05/16 03:03:45;;;;;;;9.95;2.72;;;6.20;99.90;;;;;;5041377;28;20049;-62
2023/05/16 03:06:10;;;;;;;12.35;2.65;;;6.20;99.90;;;;;;5035856;28;20052;-63
2023/05/16 03:08:36;;;;;;;13.75;2.80;;;6.20;99.90;;;;;;5072786;28;20040;-63
2023/05/16 03:11:01;;;;;;;17.10;2.42;;;6.20;99.90;;;;;;5073697;28;20048;-62
2023/05/16 03:13:28;;;;;;;17.15;3.13;;;6.20;99.90;;;;;;5065640;28;20033;-63
2023/05/16 03:15:54;;;;;;;14.48;2.83;;;6.20;99.90;;;;;;5038651;28;20119;-62
2023/05/16 03:18:20;;;;;;;17.80;3.13;;;6.20;99.90;;;;;;5070676;28;20163;-62
2023/05/16 03:20:46;;;;;;;12.48;2.90;;;6.20;99.90;;;;;;5036865;28;20052;-62
2023/05/16 03:23:12;;;;;;;16.95;2.80;;;6.20;99.90;;;;;;5033637;28;20045;-62
2023/05/16 03:25:37;;;;;;;14.52;3.00;;;6.20;99.90;;;;;;5035618;28;20059;-62
2023/05/16 03:28:06;;;;;;;12.10;2.67;;;6.20;99.90;;;;;;5036215;28;20040;-63
2023/05/16 03:30:33;;;;;;;14.05;2.83;;;6.20;99.90;;;;;;5033241;28;20037;-62
2023/05/16 03:32:58;;;;;;;11.52;2.80;;;6.20;99.90;;;;;;5036566;28;20391;-63
2023/05/16 03:35:24;;;;;;;11.27;2.85;;;6.20;99.90;;;;;;5040203;28;20124;-63
2023/05/16 03:37:49;;;;;;;13.30;2.67;;;6.20;99.90;;;;;;5067878;28;20040;-63
2023/05/16 03:40:15;;;;;;;11.73;2.90;;;6.30;99.90;;;;;;5072659;28;20041;-62
2023/05/16 03:42:41;;;;;;;19.05;3.47;;;6.30;99.90;;;;;;5044140;28;20037;-62
2023/05/16 03:45:07;;;;;;;18.02;2.70;;;6.30;99.90;;;;;;5041011;28;20627;-63
2023/05/16 03:47:33;;;;;;;16.30;3.00;;;6.30;99.90;;;;;;5074970;28;20122;-62
2023/05/16 03:49:59;;;;;;;15.45;3.00;;;6.30;99.90;;;;;;5039569;28;20029;-63
2023/05/16 03:52:24;;;;;;;13.75;2.88;;;6.30;99.90;;;;;;5074813;28;20076;-63
2023/05/16 03:54:50;;;;;;;10.13;2.92;;;6.30;99.90;;;;;;5041138;28;20476;-63
2023/05/16 03:57:15;;;;;;;10.20;2.58;;;6.30;99.90;;;;;;5071096;28;20044;-62
2023/05/16 03:59:41;;;;;;;10.60;3.03;;;6.30;99.90;;;;;;5038137;28;20036;-63
2023/05/16 04:02:07;;;;;;;14.00;3.05;;;6.30;99.90;;;;;;5038413;28;20048;-62
2023/05/16 04:04:32;;;;;;;10.75;2.80;;;6.30;99.90;;;;;;5041473;28;20413;-62
2023/05/16 04:06:58;;;;;;;13.43;2.83;;;6.30;99.90;;;;;;5037955;28;20182;-62
2023/05/16 04:09:23;;;;;;;15.30;3.65;;;6.40;99.90;;;;;;5070950;28;20040;-61
2023/05/16 04:11:49;;;;;;;12.40;2.63;;;6.40;99.90;;;;;;5036935;28;20047;-62
2023/05/16 04:14:14;;;;;;;14.38;2.60;;;6.40;99.90;;;;;;5040246;28;20055;-63
2023/05/16 04:16:40;;;;;;;13.57;3.05;;;6.40;99.90;;;;;;5044152;28;20124;-63
2023/05/16 04:19:06;;;;;;;14.73;2.75;;;6.40;99.90;;;;;;5041656;28;20044;-63
2023/05/16 04:21:32;;;;;;;9.65;2.85;;;6.50;99.90;;;;;;5041848;28;20114;-63
2023/05/16 04:23:58;;;;;;;14.82;3.00;;;6.50;99.90;;;;;;5043271;28;20032;-63
2023/05/16 04:26:24;;;;;;;15.20;2.60;;;6.50;99.90;;;;;;5038716;28;20108;-63
2023/05/16 04:28:50;;;;;;;13.55;2.75;;;6.50;99.90;;;;;;5044230;28;20037;-62
2023/05/16 04:31:16;;;;;;;16.70;3.10;;;6.50;99.90;;;;;;5075613;28;20040;-63
2023/05/16 04:33:41;;;;;;;15.45;2.35;;;6.60;99.90;;;;;;5039345;28;20041;-62
2023/05/16 04:36:07;;;;;;;14.15;3.25;;;6.60;99.90;;;;;;5070294;28;20523;-62
2023/05/16 04:38:33;;;;;;;12.23;2.53;;;6.70;99.90;;;;;;5043506;28;20495;-63
2023/05/16 04:40:59;;;;;;;14.38;2.85;;;6.70;99.90;;;;;;5045025;28;20052;-63
2023/05/16 04:43:25;;;;;;;14.52;2.58;;;6.80;99.90;;;;;;5022663;28;20630;-62
2023/05/16 04:45:52;;;;;;;14.95;2.58;;;6.80;99.90;;;;;;5045164;28;20041;-62
2023/05/16 04:48:18;;;;;;;13.27;3.00;;;6.90;99.90;;;;;;5038612;28;20037;-62
2023/05/16 04:50:44;;;;;;;15.63;2.70;;;7.00;99.90;;;;;;5076213;28;20480;-62
2023/05/16 04:53:10;;;;;;;11.75;2.80;;;7.00;99.90;;;;;;5074244;28;20064;-62
2023/05/16 04:55:36;;;;;;;13.38;2.53;;;7.10;99.90;;;;;;5046144;28;20083;-62
2023/05/16 04:58:02;;;;;;;19.58;3.13;;;7.20;99.90;;;;;;5039515;28;20045;-62
2023/05/16 05:00:27;;;;;;;11.77;2.95;;;7.30;99.90;;;;;;5073247;28;20061;-63
2023/05/16 05:02:53;;;;;;;17.05;2.80;;;7.40;99.90;;;;;;5074334;28;20128;-62
2023/05/16 05:05:19;;;;;;;7.18;2.70;;;7.50;99.90;;;;;;5047424;28;20043;-62
2023/05/16 05:07:44;;;;;;;14.23;2.75;;;7.50;99.90;;;;;;5046130;28;20551;-62
2023/05/16 05:10:10;;;;;;;7.82;2.58;;;7.50;99.90;;;;;;5044410;28;20120;-62
2023/05/16 05:12:36;;;;;;;9.48;2.30;;;7.60;99.90;;;;;;5042235;28;20107;-62
2023/05/16 05:15:02;;;;;;;8.13;2.25;;;7.60;99.90;;;;;;5044030;28;20033;-62
2023/05/16 05:17:28;;;;;;;10.63;2.42;;;7.60;99.90;;;;;;5077953;28;20064;-62
2023/05/16 05:19:54;;;;;;;13.98;3.35;;;7.70;99.90;;;;;;5043211;28;20052;-61
2023/05/16 05:22:20;;;;;;;8.75;2.30;;;7.80;99.90;;;;;;5038473;28;20411;-63
2023/05/16 05:24:45;;;;;;;18.77;2.47;;;7.80;99.90;;;;;;5043563;28;20151;-63
2023/05/16 05:27:11;;;;;;;14.57;2.50;;;7.90;99.90;;;;;;5075862;28;20137;-62
2023/05/16 05:29:36;;;;;;;8.70;2.38;;;8.00;99.90;;;;;;5058580;28;20040;-62
2023/05/16 05:32:02;;;;;;;12.80;2.65;;;8.10;99.90;;;;;;5046609;28;20029;-62
2023/05/16 05:34:28;;;;;;;14.43;2.60;;;8.20;99.90;;;;;;5042324;28;20045;-62
2023/05/16 05:36:53;;;;;;;6.28;2.30;;;8.40;99.90;;;;;;5043735;28;20033;-63
2023/05/16 05:39:19;;;;;;;11.70;2.85;;;8.40;99.90;;;;;;5044319;28;20392;-62
2023/05/16 05:41:45;;;;;;;13.77;2.35;;;8.50;99.90;;;;;;5045374;28;20212;-62
2023/05/16 05:44:11;;;;;;;11.77;2.17;;;8.70;99.90;;;;;;5041175;28;20034;-62
2023/05/16 05:46:37;;;;;;;11.77;2.58;;;8.80;99.90;;;;;;5044187;28;20064;-63
2023/05/16 05:49:02;;;;;;;12.23;2.33;;;8.90;99.90;;;;;;5032891;28;20056;-63
2023/05/16 05:51:28;;;;;;;11.38;2.20;;;9.00;99.90;;;;;;5040116;28;20033;-63
2023/05/16 05:53:54;;;;;;;12.00;2.22;;;9.10;99.90;;;;;;5068858;28;20048;-62
2023/05/16 05:56:20;;;;;;;12.10;2.25;;;9.30;99.90;;;;;;5055311;28;20042;-62
2023/05/16 05:58:46;;;;;;;9.07;2.00;;;9.30;99.90;;;;;;5070552;28;20041;-63
2023/05/16 06:01:12;;;;;;;6.55;1.70;;;9.40;99.90;;;;;;5040304;28;20037;-63
2023/05/16 06:03:37;;;;;;;11.52;2.22;;;9.60;99.90;;;;;;5036099;28;20082;-62
2023/05/16 06:06:03;;;;;;;7.95;1.80;;;9.60;99.90;;;;;;5071822;28;20052;-62
2023/05/16 06:08:29;;;;;;;10.98;1.80;;;9.70;99.90;;;;;;5041361;28;20136;-63
2023/05/16 06:10:55;;;;;;;9.48;2.08;;;9.80;99.90;;;;;;5036708;28;20112;-63
2023/05/16 06:13:20;;;;;;;8.38;1.90;;;9.80;99.90;;;;;;5035969;28;20029;-63
2023/05/16 06:15:50;;;;;;;6.88;1.63;;;9.90;99.90;;;;;;5039078;28;20087;-62
2023/05/16 06:18:16;;;;;;;14.13;1.83;;;10.00;99.90;;;;;;5072189;28;20040;-63
2023/05/16 06:20:42;;;;;;;10.15;1.60;;;10.00;99.90;;;;;;5069042;28;20392;-61
2023/05/16 06:23:07;;;;;;;9.55;1.83;;;10.10;99.90;;;;;;5044102;28;21176;-62
2023/05/16 06:25:33;;;;;;;6.80;1.52;;;10.10;99.90;;;;;;5077295;28;20084;-63
2023/05/16 06:27:58;;;;;;;5.68;1.50;;;10.20;99.90;;;;;;5040785;28;20094;-62
2023/05/16 06:30:24;;;;;;;7.97;1.73;;;10.30;99.90;;;;;;5045478;28;20471;-61
2023/05/16 06:32:49;;;;;;;8.68;1.77;;;10.40;99.90;;;;;;5048387;28;20056;-61
2023/05/16 06:35:15;;;;;;;12.57;2.55;;;10.50;99.90;;;;;;5044836;28;20040;-62
2023/05/16 06:37:41;;;;;;;6.75;1.48;;;10.60;99.90;;;;;;5044315;28;20251;-62
2023/05/16 06:40:07;;;;;;;10.05;1.67;;;10.70;99.90;;;;;;5076196;28;20507;-61
2023/05/16 06:42:32;;;;;;;7.43;2.28;;;10.80;99.90;;;;;;5074699;28;20080;-63
2023/05/16 06:44:58;;;;;;;4.82;1.10;;;10.90;99.90;;;;;;5043588;28;20091;-63
2023/05/16 06:47:23;;;;;;;6.75;1.35;;;10.90;99.90;;;;;;5045677;28;20048;-62
2023/05/16 06:49:49;;;;;;;9.75;1.00;;;10.90;99.90;;;;;;5041378;28;20112;-62
2023/05/16 06:52:15;;;;;;;6.03;1.10;;;10.90;99.90;;;;;;5042835;28;20496;-63
2023/05/16 06:54:41;;;;;;;6.97;1.45;;;10.90;99.90;;;;;;5043078;28;20047;-63
2023/05/16 06:57:07;;;;;;;6.25;1.10;;;10.90;99.90;;;;;;5045132;28;20045;-62
2023/05/16 06:59:34;;;;;;;7.28;1.52;;;10.90;99.90;;;;;;5041298;28;20048;-61
2023/05/16 07:02:00;;;;;;;6.97;1.33;;;11.00;99.90;;;;;;5044132;28;20033;-62
2023/05/16 07:04:25;;;;;;;5.90;1.25;;;10.90;99.90;;;;;;5039226;28;20103;-63
2023/05/16 07:06:52;;;;;;;6.32;1.30;;;10.80;99.90;;;;;;5079380;28;20419;-61
2023/05/16 07:09:17;;;;;;;3.22;0.60;;;10.70;99.90;;;;;;5043593;28;20087;-62
2023/05/16 07:11:43;;;;;;;3.88;1.08;;;10.70;99.90;;;;;;5044767;28;20472;-61
2023/05/16 07:14:09;;;;;;;6.70;1.10;;;10.70;99.90;;;;;;5041850;28;20039;-63
2023/05/16 07:16:35;;;;;;;4.22;0.82;;;10.80;99.90;;;;;;5040598;28;20476;-62
2023/05/16 07:19:00;;;;;;;6.13;1.10;;;10.90;99.90;;;;;;5040034;28;20045;-61
2023/05/16 07:21:26;;;;;;;5.15;0.82;;;11.00;99.90;;;;;;5045052;28;20583;-63
2023/05/16 07:23:52;;;;;;;4.03;0.80;;;11.20;99.90;;;;;;5070599;28;20041;-63
2023/05/16 07:26:21;;;;;;;5.82;1.13;;;11.60;99.90;;;;;;5042766;28;20041;-63
2023/05/16 07:28:46;;;;;;;9.00;1.38;;;11.80;99.90;;;;;;5038589;28;20037;-62
2023/05/16 07:31:12;;;;;;;8.18;1.35;;;12.00;99.90;;;;;;5044568;28;20047;-62
2023/05/16 07:33:37;;;;;;;2.20;0.82;;;12.20;99.90;;;;;;5038583;28;20124;-63
2023/05/16 07:36:03;;;;;;;2.58;0.75;;;12.30;99.90;;;;;;5045827;28;20072;-62
2023/05/16 07:38:29;;;;;;;5.25;1.17;;;12.20;99.90;;;;;;5041293;28;20102;-62
2023/05/16 07:40:55;;;;;;;2.50;0.80;;;12.30;99.90;;;;;;5047768;28;20032;-62
2023/05/16 07:43:20;;;;;;;5.25;1.20;;;12.30;99.90;;;;;;5041445;28;20052;-62
2023/05/16 07:45:46;;;;;;;3.90;0.95;;;12.10;99.90;;;;;;5043029;28;20044;-61
2023/05/16 07:48:12;;;;;;;6.57;1.02;;;12.00;99.90;;;;;;5074186;28;20041;-63
2023/05/16 07:50:37;;;;;;;6.85;1.05;;;12.00;99.90;;;;;;5041347;28;20499;-63
2023/05/16 07:53:03;;;;;;;5.00;1.15;;;12.10;99.90;;;;;;5043005;28;20156;-63
2023/05/16 07:55:28;;;;;;;10.35;1.08;;;12.10;99.90;;;;;;5043660;28;20055;-64
2023/05/16 07:57:54;;;;;;;5.72;1.13;;;12.20;99.90;;;;;;5076347;28;20063;-64
2023/05/16 08:00:20;;;;;;;7.30;1.30;;;12.30;99.90;;;;;;5043207;28;20037;-61
2023/05/16 08:02:46;;;;;;;6.47;1.70;;;12.30;99.90;;;;;;5050490;28;20039;-62
2023/05/16 08:05:11;;;;;;;8.35;1.30;;;12.40;99.90;;;;;;5046042;28;20526;-62
2023/05/16 08:07:37;;;;;;;8.40;1.30;;;12.50;99.90;;;;;;5044461;28;20041;-63
2023/05/16 08:10:03;;;;;;;11.13;1.83;;;12.60;99.90;;;;;;5041477;28;20040;-63
2023/05/16 08:12:29;;;;;;;9.18;1.35;;;12.50;99.90;;;;;;5035105;28;20037;-63
2023/05/16 08:14:55;;;;;;;10.40;1.42;;;12.60;99.90;;;;;;5044136;28;20047;-62
2023/05/16 08:17:21;;;;;;;7.53;1.55;;;12.70;99.90;;;;;;5041403;28;20480;-62
2023/05/16 08:19:47;;;;;;;11.85;1.40;;;12.60;99.90;;;;;;5033674;28;20044;-60
2023/05/16 08:22:12;;;;;;;8.75;1.70;;;12.20;99.90;;;;;;5049954;28;20131;-63
2023/05/16 08:24:38;;;;;;;6.00;1.08;;;11.90;99.90;;;;;;5037622;28;20522;-63
2023/05/16 08:27:04;;;;;;;5.90;1.15;;;11.80;99.90;;;;;;5045314;28;20132;-62
2023/05/16 08:29:30;;;;;;;3.28;1.00;;;12.10;99.90;;;;;;5028188;28;20075;-62
2023/05/16 08:31:56;;;;;;;2.40;0.90;;;12.40;99.90;;;;;;5044993;28;20052;-63
2023/05/16 08:34:21;;;;;;;5.10;1.40;;;12.70;99.90;;;;;;5039577;28;20029;-62
2023/05/16 08:36:47;;;;;;;6.78;1.00;;;12.80;99.90;;;;;;5047464;28;20506;-63
2023/05/16 08:39:13;;;;;;;7.43;1.25;;;13.00;99.90;;;;;;5043754;28;20040;-62
2023/05/16 08:41:39;;;;;;;5.60;1.17;;;13.30;99.90;;;;;;5047339;28;20043;-62
2023/05/16 08:44:05;;;;;;;6.10;1.10;;;13.10;99.90;;;;;;5039439;28;20033;-62
2023/05/16 08:46:34;;;;;;;5.50;1.38;;;12.70;99.90;;;;;;5048698;28;20049;-61
2023/05/16 08:49:00;;;;;;;3.90;1.13;;;12.40;99.90;;;;;;5031684;28;20159;-62
2023/05/16 08:51:29;;;;;;;4.43;1.10;;;12.10;99.90;;;;;;5045071;28;20084;-63
2023/05/16 08:54:02;;;;;;;3.95;1.00;;;11.90;99.90;;;;;;5035901;28;20040;-62
2023/05/16 08:56:27;;;;;;;;;;;11.70;99.90;;;;;;5045273;28;20072;-62
2023/05/16 08:58:54;;;;;;;7.38;1.10;;;11.50;99.90;;;;;;5041152;28;19967;-63
2023/05/16 09:01:21;;;;;;;4.47;0.90;;;11.60;99.90;;;;;;5036701;28;20079;-63
2023/05/16 09:03:49;;;;;;;5.15;0.93;;;11.80;99.90;;;;;;5038491;28;20495;-62
2023/05/16 09:06:15;;;;;;;4.65;0.95;;;12.10;99.90;;;;;;5028391;28;20050;-63
2023/05/16 09:08:41;;;;;;;2.65;0.90;;;12.30;99.90;;;;;;5073597;28;20033;-62
2023/05/16 09:11:08;;;;;;;2.50;0.80;;;12.40;99.90;;;;;;5048301;28;20037;-62
2023/05/16 09:13:33;;;;;;;6.30;1.40;;;12.50;99.90;;;;;;5047417;28;20041;-62
2023/05/16 09:16:13;;;;;;;3.65;0.70;;;12.60;99.90;;;;;;5042378;28;20385;-63
2023/05/16 09:18:41;;;;;;;3.28;0.85;;;12.80;99.90;;;;;;5040649;28;20051;-63
2023/05/16 09:21:10;;;;;;;4.70;1.05;;;12.90;99.90;;;;;;5046598;28;20385;-63
2023/05/16 09:23:35;;;;;;;4.70;0.95;;;12.70;99.90;;;;;;5045589;28;20095;-63
2023/05/16 09:26:02;;;;;;;5.45;1.08;;;12.70;99.90;;;;;;5039503;28;20037;-63
2023/05/16 09:28:28;;;;;;;7.75;1.10;;;12.80;99.90;;;;;;5044324;28;20074;-62
2023/05/16 09:30:57;;;;;;;5.00;1.30;;;13.10;99.90;;;;;;5071812;28;20080;-64
2023/05/16 09:33:25;;;;;;;3.17;0.80;;;13.30;99.90;;;;;;5045343;28;20095;-64
2023/05/16 09:36:01;;;;;;;3.33;0.88;;;13.20;99.90;;;;;;5038334;28;20046;-61
2023/05/16 09:38:27;;;;;;;9.73;1.40;;;13.10;99.90;;;;;;5038495;28;20037;-63
2023/05/16 09:40:54;;;;;;;3.67;0.90;;;13.30;99.90;;;;;;5039374;28;20069;-62
2023/05/16 09:43:23;;;;;;;5.60;1.20;;;13.30;99.90;;;;;;5033867;28;20072;-62
2023/05/16 09:45:49;;;;;;;5.80;1.50;;;13.20;99.90;;;;;;5041220;28;20065;-62
2023/05/16 09:48:16;;;;;;;5.28;1.48;;;12.80;99.90;;;;;;5079844;28;20075;-62
2023/05/16 09:50:51;;;;;;;6.38;1.10;;;12.50;99.90;;;;;;5043950;28;20036;-63
2023/05/16 09:53:25;;;;;;;11.25;1.25;;;12.40;99.90;;;;;;5039229;28;20503;-61
2023/05/16 09:56:11;;;;;;;4.63;0.90;;;12.50;99.90;;;;;;5064807;28;20041;-63
2023/05/16 09:58:38;;;;;;;6.18;1.30;;;12.80;99.90;;;;;;5043319;28;20044;-63
2023/05/16 10:01:06;;;;;;;6.35;1.30;;;13.20;99.90;;;;;;5045378;28;20811;-64
2023/05/16 10:03:34;;;;;;;6.13;1.10;;;13.40;99.90;;;;;;5043298;28;20120;-62
2023/05/16 10:06:00;;;;;;;10.63;1.30;;;13.50;99.90;;;;;;5046297;28;20552;-62
2023/05/16 10:08:26;;;;;;;7.72;1.38;;;13.20;99.90;;;;;;5047187;28;20346;-64
2023/05/16 10:10:55;;;;;;;5.53;1.05;;;13.00;99.90;;;;;;5047343;28;20069;-63
2023/05/16 10:13:27;;;;;;;8.70;1.08;;;12.70;99.90;;;;;;5039090;28;20045;-63
2023/05/16 10:15:55;;;;;;;4.63;1.20;;;12.60;99.90;;;;;;5074938;28;20121;-62
2023/05/16 10:18:23;;;;;;;7.15;1.27;;;12.60;99.90;;;;;;5042663;28;20434;-63
2023/05/16 10:20:51;;;;;;;5.28;0.93;;;12.70;99.90;;;;;;5049185;28;20067;-63
2023/05/16 10:23:18;;;;;;;4.20;0.70;;;13.00;99.90;;;;;;5045572;28;20534;-62
2023/05/16 10:25:47;;;;;;;6.53;1.00;;;13.20;99.90;;;;;;5052971;28;20042;-62
2023/05/16 10:28:14;;;;;;;8.30;0.90;;;13.10;99.90;;;;;;5044431;28;20396;-63
2023/05/16 10:30:42;;;;;;;4.35;1.13;;;13.00;99.90;;;;;;5074806;28;20041;-63
2023/05/16 10:33:11;;;;;;;10.40;1.90;;;12.80;99.90;;;;;;5042684;28;20041;-62
2023/05/16 10:35:37;;;;;;;7.93;1.65;;;12.70;99.90;;;;;;5068881;28;20483;-62
2023/05/16 10:38:04;;;;;;;6.22;1.27;;;12.50;99.90;;;;;;5029720;28;20127;-63
2023/05/16 10:40:30;;;;;;;3.35;0.80;;;12.40;99.90;;;;;;5042350;28;20098;-63
2023/05/16 10:43:00;;;;;;;6.40;1.50;;;12.20;99.90;;;;;;5046003;28;20044;-63
2023/05/16 10:45:26;;;;;;;5.68;1.10;;;12.20;99.90;;;;;;5045554;28;20119;-63
2023/05/16 10:47:56;;;;;;;3.15;1.30;;;12.40;99.90;;;;;;5040722;28;20041;-62
2023/05/16 10:50:32;;;;;;;6.43;1.20;;;12.60;99.90;;;;;;5043396;28;20029;-63
2023/05/16 10:53:20;;;;;;;8.10;1.67;;;12.90;99.90;;;;;;5076356;28;20048;-62
2023/05/16 10:56:00;;;;;;;5.88;1.10;;;13.10;99.90;;;;;;5051028;28;20033;-63
2023/05/16 10:58:32;;;;;;;6.95;1.13;;;13.30;99.90;;;;;;5041394;28;20476;-63
2023/05/16 11:01:17;;;;;;;3.73;0.93;;;13.20;99.90;;;;;;5070505;28;20095;-63
2023/05/16 11:03:58;;;;;;;8.20;1.05;;;13.10;99.90;;;;;;5049885;28;20539;-63
2023/05/16 11:06:42;;;;;;;5.40;1.42;;;13.00;99.90;;;;;;5082659;28;20419;-63
2023/05/16 11:09:12;;;;;;;1.80;0.80;;;12.50;99.90;;;;;;5048475;28;20052;-63
2023/05/16 11:11:46;;;;;;;6.18;1.30;;;11.60;99.90;;;;;;5050420;28;20140;-62
2023/05/16 11:14:24;;;;;;;2.42;0.95;;;11.10;99.90;;;;;;5039349;28;20037;-63
2023/05/16 11:17:08;;;;;;;7.32;1.42;;;11.10;99.90;;;;;;5039577;28;20062;-62
2023/05/16 11:19:46;;;;;;;8.80;1.40;;;11.40;99.90;;;;;;5047332;28;20055;-63
2023/05/16 11:22:15;;;;;;;4.88;1.13;;;11.70;99.90;;;;;;5046534;28;20064;-62
2023/05/16 11:25:01;;;;;;;6.82;1.35;;;12.00;99.90;;;;;;5049580;28;20045;-62
2023/05/16 11:27:28;;;;;;;9.05;1.30;;;12.30;99.90;;;;;;5044045;28;20057;-63
2023/05/16 11:30:00;;;;;;;5.30;1.05;;;12.60;99.90;;;;;;5050244;28;20045;-63
2023/05/16 11:32:25;;;;;;;5.88;1.02;;;12.90;99.90;;;;;;5046505;28;20029;-63
2023/05/16 11:34:52;;;;;;;10.02;1.85;;;13.20;99.90;;;;;;5052351;28;20041;-63
2023/05/16 11:37:18;;;;;;;7.97;1.63;;;13.40;99.90;;;;;;5047990;28;20044;-64
2023/05/16 11:39:45;;;;;;;3.42;1.15;;;13.30;99.90;;;;;;5047851;28;20466;-64
2023/05/16 11:42:12;;;;;;;5.15;1.20;;;13.20;99.90;;;;;;5047741;28;20048;-63
2023/05/16 11:44:39;;;;;;;8.73;1.60;;;13.00;99.90;;;;;;5031516;28;20050;-63
2023/05/16 11:47:05;;;;;;;8.00;1.88;;;12.90;99.90;;;;;;5033306;28;20056;-62
2023/05/16 11:49:30;;;;;;;4.57;1.20;;;12.90;99.90;;;;;;5045511;28;20041;-62
2023/05/16 11:51:56;;;;;;;6.35;1.23;;;12.90;99.90;;;;;;5041217;28;20079;-63
2023/05/16 11:54:23;;;;;;;6.43;1.40;;;12.90;99.90;;;;;;5047362;28;20040;-63
2023/05/16 11:56:50;;;;;;;6.10;1.42;;;12.80;99.90;;;;;;5081916;28;20052;-61
2023/05/16 11:59:19;;;;;;;2.97;1.02;;;12.90;99.90;;;;;;5043364;28;20169;-63
2023/05/16 12:01:48;;;;;;;3.10;0.95;;;13.10;99.90;;;;;;5051160;28;20055;-62
2023/05/16 12:04:15;;;;;;;5.65;1.40;;;13.20;99.90;;;;;;5044732;28;20049;-63
2023/05/16 12:06:44;;;;;;;6.38;2.30;;;13.40;99.90;;;;;;5081357;28;20068;-61
2023/05/16 12:09:14;;;;;;;3.85;1.10;;;13.30;99.90;;;;;;5046024;28;20037;-62
2023/05/16 12:11:41;;;;;;;8.00;1.70;;;13.20;99.90;;;;;;5050442;28;20126;-61
2023/05/16 12:14:09;;;;;;;4.53;1.17;;;12.90;99.90;;;;;;5046777;28;20044;-62
2023/05/16 12:16:36;;;;;;;4.47;1.23;;;12.80;99.90;;;;;;5083933;28;20115;-62
2023/05/16 12:19:03;;;;;;;2.97;1.25;;;12.60;99.90;;;;;;5079545;28;20037;-63
2023/05/16 12:21:30;;;;;;;5.78;1.60;;;12.40;99.90;;;;;;5046483;28;20473;-62
2023/05/16 12:23:57;;;;;;;5.25;1.20;;;12.30;99.90;;;;;;5042544;28;20075;-63
2023/05/16 12:26:29;;;;;;;4.40;1.80;;;12.30;99.90;;;;;;5049260;28;20048;-64
2023/05/16 12:28:59;;;;;;;4.53;1.70;;;12.40;99.90;;;;;;5046983;28;20072;-63
2023/05/16 12:31:26;;;;;;;6.45;1.80;;;12.50;99.90;;;;;;5047242;28;20037;-61
2023/05/16 12:33:56;;;;;;;6.50;2.08;;;12.70;99.90;;;;;;5042557;28;20045;-63
2023/05/16 12:36:23;;;;;;;8.45;2.00;;;12.80;99.90;;;;;;5037168;28;20037;-63
2023/05/16 12:38:49;;;;;;;8.40;2.00;;;13.00;99.90;;;;;;5042430;28;20403;-63
2023/05/16 12:41:21;;;;;;;4.20;1.85;;;13.20;99.90;;;;;;5036550;28;20065;-62
2023/05/16 12:43:50;;;;;;;7.53;2.47;;;13.20;99.90;;;;;;5037395;28;20044;-61
2023/05/16 12:46:18;;;;;;;4.32;1.52;;;13.10;99.90;;;;;;5045751;28;20041;-63
2023/05/16 12:48:46;;;;;;;4.32;1.52;;;13.20;99.90;;;;;;5038577;28;20411;-62